Logo AVAMET
Benvolgut visitant, si us plau, ingressa Recuperar contrasenya

Gandia Roís de Corella

Dades diàries. Acumulats / Últims 30 dies disponibles

Data Temperatura (°C) Humitat rel. (%) Pressió rel. (hPa) Vent (km/h) Precipitació
Mínima Mitjana Màxima Amplitud
tèrmica
Mínima Mitjana Màxima Mínima Mitjana Màxima Predom. Mitjana Ràfega
màxima
Total
(mm)
Índex-n
Mínima Mitjana Màxima Mínima Mitjana Màxima n
0 a 1
P0 max
mm 5'
Dades mensuals acumulades fins l'últim dia disponible
05/2019 8,7 14,3 22,8 19,4 19,8 25,1 32,3 23,6 26 67 95 1.002 1.015 1.025   3,2 43,5 7,8
Dades anuals acumulades fins l'últim dia disponible
2019 -0,2 9,4 22,8 14,5 12,6 20,4 32,3 32,5 14 64 97 993 1.019 1.036   3,6 74,0 295,0
Últims 30 dies disponibles
26-05-2019 13,0     18,6     22,8 9,8 49 70 85 1.015 1.017 1.019 SSE 2,7 22,5 0,0
25-05-2019 15,5     18,0     22,9 7,4 49 75 91 1.015 1.017 1.019 SSO 2,0 17,7 1,2
24-05-2019 16,0     18,5     21,0 5,0 69 81 89 1.013 1.015 1.016 SSO 1,9 25,7 1,2 0,20
23-05-2019 14,5     21,9     29,4 14,9 36 67 92 1.013 1.016 1.019 SSE 1,9 12,9 0,0
22-05-2019 13,4     19,9     26,9 13,5 50 76 95 1.016 1.018 1.019 SSE 2,1 17,7 0,2
21-05-2019 16,4     19,2     25,3 8,9 57 77 90 1.014 1.015 1.017 S 2,5 25,7 2,6 0,32 0,40
20-05-2019 11,3     18,8     24,6 13,3 30 60 82 1.011 1.013 1.014 SSE 4,2 25,7 0,0
19-05-2019 12,2     18,1     25,4 13,2 26 63 87 1.009 1.010 1.013 SSO 1,9 25,7 0,0
18-05-2019 13,8     17,3     20,6 6,8 41 60 85 1.008 1.009 1.011 SSE 2,8 22,5 0,0
17-05-2019 16,4     21,0     25,8 9,4 29 45 81 1.002 1.005 1.010 OSO 7,2 43,5 0,0
16-05-2019 16,8     20,1     24,9 8,1 57 70 80 1.005 1.011 1.016 SSE 3,8 29,0 0,0
15-05-2019 13,4     19,0     23,4 10,0 53 70 82 1.011 1.013 1.016 SSE 2,9 22,5 0,0
14-05-2019 12,2     20,4     29,2 17,0 29 61 90 1.013 1.018 1.022 S 3,5 22,5 0,0
13-05-2019 14,6     19,5     25,3 10,7 31 66 89 1.019 1.020 1.021 S 3,1 19,3 0,0
12-05-2019 15,3     20,1     25,5 10,2 49 71 90 1.019 1.023 1.025 S 3,3 22,5 0,0
11-05-2019 17,3     22,4     27,7 10,4 36 63 83 1.014 1.018 1.024 SSE 3,6 22,5 0,0
10-05-2019 22,8     26,8     32,3 9,5 31 47 60 1.012 1.013 1.014 SSO 6,8 35,4 0,0
09-05-2019 20,8     24,8     30,4 9,6 38 49 62 1.011 1.012 1.014 SO 4,4 35,4 0,0
08-05-2019 14,4     23,3     30,7 16,3 33 58 94 1.009 1.012 1.015 SO 5,2 37,0 0,0
07-05-2019 14,4     20,2     28,2 13,8 43 73 90 1.013 1.017 1.019 SSE 1,9 14,5 0,0
06-05-2019 10,3     16,3     22,3 12,0 64 78 93 1.016 1.018 1.020 SSO 2,2 17,7 0,0
05-05-2019 11,3     16,4     21,8 10,5 43 66 88 1.012 1.015 1.018 SSE 3,5 24,1 0,0
04-05-2019 8,7     15,7     23,2 14,5 45 70 95 1.009 1.012 1.014 SSO 2,7 19,3 0,2
03-05-2019 10,7     14,4     20,0 9,3 66 81 94 1.011 1.013 1.015 S 2,6 27,4 2,0
02-05-2019 12,4     16,5     19,8 7,4 62 78 91 1.014 1.015 1.017 S 1,6 14,5 0,4
01-05-2019 13,1     17,4     23,1 10,0 43 76 95 1.012 1.015 1.017 S 2,5 19,3 0,0
30-04-2019 14,7     18,5     23,8 9,1 48 74 91 1.015 1.017 1.019 SSE 3,2 24,1 3,0
29-04-2019 11,6     16,7     22,1 10,5 62 78 93 1.016 1.019 1.021 SSO 2,7 32,2 0,0
28-04-2019 11,2     17,3     23,6 12,4 48 71 90 1.019 1.022 1.025 S 2,1 19,3 0,0
27-04-2019 9,8     17,6     25,0 15,2 36 58 83 1.023 1.025 1.027 S 2,1 17,7 0,0
Últims 13 mesos disponibles
04/2019 8,3 11,6 15,1 16,1 14,5 21,0 29,9 21,6 38 66 95 1.000 1.013 1.025 SSO 4,6 53,1 234,0
03/2019 5,3 8,3 15,0 14,4 14,1 20,8 29,1 23,8 36 61 92 1.010 1.023 1.030 S 3,0 53,1 52,4
02/2019 4,2 6,5 11,6 12,0 14,1 18,3 24,1 19,9 32 65 83 995 1.025 1.034 SO 3,1 74,0 0,4
01/2019 -0,2 6,6 13,6 11,4 12,6 17,5 21,5 21,7 38 60 84 1.002 1.019 1.031 SO 4,1 57,9 0,4
12/2018 4,1 7,8 13,7 12,4 14,9 18,6 22,2 18,1 53 74 91 1.009 1.026 1.031 SO 1,4 53,1 22,8
Tots els anys disponibles
Temperatura (°C)
Humitat relativa (%)
Pressió (hPa)
Precipitació (mm)
Nota sobre les dades: s'avisa a l'usuari de la provisionalitat i no oficialitat d'aquestes dades
Logo AVAMET blanc
Web allotjada a Sollutia
Llicència de Creative CommonsLa web d'AVAMET i els seus continguts estan subjectes a una llicència de
Reconeixement - No Comercial - Compartir igual
Properes estacions: Altea - Club Nàutic d'Altea (Soci), Ontinyent - El Pilar (Soci), Ares del Maestrat (Ajuntament Soci), Catadau - L'Altet (Inforatge)     - - - - -      Últimes estacions: Asp - Poliesportiu (Soci), Jacarilla - centro (MeteOrihuela), Elx - Maitino/Vallverda/Velarde/Matola/Ferriol (Soci TiempoElche.com), Orihuela - Playa Flamenca (MeteOrihuela), - - -